createdAt,value
2022-11-30T00:03:26.364Z,82.00
2022-11-30T00:08:22.761Z,86.93
2022-11-30T00:13:18.948Z,89.65
2022-11-30T00:18:17.864Z,84.32
2022-11-30T00:23:14.055Z,85.50
2022-11-30T00:28:10.267Z,85.05
2022-11-30T00:33:06.438Z,82.10
2022-11-30T00:38:03.196Z,83.45
2022-11-30T00:42:59.391Z,85.15
2022-11-30T00:47:55.636Z,86.40
2022-11-30T00:52:51.893Z,88.80
2022-11-30T00:57:48.116Z,88.97
2022-11-30T01:02:45.016Z,86.88
2022-11-30T01:07:41.276Z,86.80
2022-11-30T01:12:37.627Z,84.80
2022-11-30T01:17:33.811Z,86.38
2022-11-30T01:22:30.087Z,88.38
2022-11-30T01:27:26.462Z,87.22
2022-11-30T01:32:22.706Z,87.00
2022-11-30T01:37:18.988Z,85.10
2022-11-30T01:42:19.893Z,83.32
2022-11-30T01:47:16.360Z,87.50
2022-11-30T01:52:14.645Z,88.38
2022-11-30T01:57:13.457Z,89.35
2022-11-30T02:02:09.844Z,89.57
2022-11-30T02:07:07.699Z,88.85
2022-11-30T02:12:05.427Z,84.80
2022-11-30T02:17:13.946Z,86.45
2022-11-30T02:22:22.549Z,85.82
2022-11-30T02:27:37.235Z,85.32
2022-11-30T02:32:44.113Z,82.53
2022-11-30T02:37:40.683Z,79.32
2022-11-30T02:42:36.869Z,83.28
2022-11-30T02:47:33.077Z,83.60
2022-11-30T02:52:30.018Z,86.25
2022-11-30T02:57:26.228Z,82.93
2022-11-30T03:02:22.622Z,86.85
2022-11-30T03:07:18.849Z,89.03
2022-11-30T03:12:15.203Z,90.28
2022-11-30T03:17:11.424Z,89.00
2022-11-30T03:22:07.929Z,84.20
2022-11-30T03:27:04.117Z,90.78
2022-11-30T03:32:00.296Z,86.65
2022-11-30T03:36:57.201Z,86.32
2022-11-30T03:41:53.448Z,87.35
2022-11-30T03:46:49.702Z,81.53
2022-11-30T03:51:45.975Z,84.60
2022-11-30T03:56:42.328Z,85.57
2022-11-30T04:01:40.833Z,89.65
2022-11-30T04:06:37.336Z,82.20
2022-11-30T04:11:33.600Z,88.30
2022-11-30T04:16:29.835Z,90.88
2022-11-30T04:21:26.257Z,86.97
2022-11-30T04:26:22.507Z,87.80
2022-11-30T04:31:18.824Z,88.70
2022-11-30T04:36:17.567Z,86.78
2022-11-30T04:41:14.261Z,88.78
2022-11-30T04:46:10.766Z,88.88
2022-11-30T04:51:08.146Z,95.43
2022-11-30T04:56:08.694Z,89.15
2022-11-30T05:01:05.013Z,82.85
2022-11-30T05:06:01.354Z,90.45
2022-11-30T05:10:57.723Z,88.65
2022-11-30T05:15:54.285Z,93.90
2022-11-30T05:20:51.338Z,93.25
2022-11-30T05:25:48.044Z,92.88
2022-11-30T05:30:44.329Z,93.70
2022-11-30T05:35:40.734Z,85.75
2022-11-30T05:40:36.960Z,96.18
2022-11-30T05:45:33.397Z,96.53
2022-11-30T05:50:30.070Z,96.72
2022-11-30T05:55:27.053Z,96.45
2022-11-30T06:00:23.305Z,94.93
2022-11-30T06:05:19.483Z,96.63
2022-11-30T06:10:15.707Z,93.30
2022-11-30T06:15:11.918Z,96.40
2022-11-30T06:20:08.389Z,91.00
2022-11-30T06:25:04.826Z,94.05
2022-11-30T06:30:01.479Z,97.88
2022-11-30T06:34:57.688Z,94.75
2022-11-30T06:40:09.220Z,90.70
2022-11-30T06:45:06.033Z,91.22
2022-11-30T06:50:02.232Z,88.85
2022-11-30T06:54:58.522Z,93.85
2022-11-30T06:59:55.258Z,99.63
2022-11-30T07:04:51.487Z,96.60
2022-11-30T07:09:47.719Z,98.68
2022-11-30T07:14:43.942Z,94.65
2022-11-30T07:19:40.141Z,96.40
2022-11-30T07:24:55.225Z,92.47
2022-11-30T07:29:52.416Z,96.63
2022-11-30T07:34:48.922Z,97.32
2022-11-30T07:39:45.280Z,94.53
2022-11-30T07:44:41.580Z,92.43
2022-11-30T07:49:39.617Z,91.22
2022-11-30T07:54:35.929Z,97.35
2022-11-30T07:59:32.109Z,90.85
2022-11-30T08:04:28.345Z,89.28
2022-11-30T08:09:24.562Z,88.85
2022-11-30T08:14:20.840Z,86.68
2022-11-30T08:19:17.086Z,88.20
2022-11-30T08:24:14.134Z,82.97
2022-11-30T08:29:13.243Z,80.40
2022-11-30T08:34:11.264Z,81.30
2022-11-30T08:39:08.938Z,77.38
2022-11-30T08:44:05.421Z,73.05
2022-11-30T08:49:20.457Z,78.05
2022-11-30T08:54:17.606Z,76.93
2022-11-30T08:59:13.799Z,69.85
2022-11-30T09:04:10.029Z,71.65
2022-11-30T09:09:06.397Z,73.38
2022-11-30T09:14:04.610Z,68.78
2022-11-30T09:19:00.798Z,67.10
2022-11-30T09:23:57.202Z,68.07
2022-11-30T09:28:54.113Z,67.63
2022-11-30T09:33:50.960Z,63.95
2022-11-30T09:38:47.329Z,68.10
2022-11-30T09:44:01.567Z,62.28
2022-11-30T09:49:02.747Z,65.75
2022-11-30T09:54:02.556Z,62.35
2022-11-30T09:59:11.740Z,63.70
2022-11-30T10:04:15.923Z,62.92
2022-11-30T10:09:19.865Z,63.45
2022-11-30T10:14:19.119Z,65.00
2022-11-30T10:19:33.840Z,65.72
2022-11-30T10:24:58.496Z,63.45
2022-11-30T10:29:55.305Z,64.85
2022-11-30T10:34:56.590Z,61.30
2022-11-30T10:39:52.902Z,63.30
2022-11-30T10:44:57.345Z,62.13
2022-11-30T10:49:53.582Z,63.53
2022-11-30T10:54:51.817Z,62.05
2022-11-30T10:59:50.331Z,62.47
2022-11-30T11:04:46.696Z,66.50
2022-11-30T11:09:47.000Z,60.90
2022-11-30T11:14:43.762Z,65.70
2022-11-30T11:19:41.813Z,62.95
2022-11-30T11:24:38.160Z,63.30
2022-11-30T11:29:34.986Z,64.25
2022-11-30T11:34:32.840Z,65.13
2022-11-30T11:39:29.232Z,64.35
2022-11-30T11:44:27.105Z,63.20
2022-11-30T11:49:24.564Z,65.80
2022-11-30T11:54:28.339Z,65.85
2022-11-30T11:59:39.719Z,64.75
2022-11-30T12:04:40.265Z,65.57
2022-11-30T12:09:39.811Z,64.65
2022-11-30T12:14:36.092Z,67.85
2022-11-30T12:19:50.742Z,67.75
2022-11-30T12:24:47.001Z,68.85
2022-11-30T12:30:06.233Z,67.78
2022-11-30T12:35:02.426Z,67.38
2022-11-30T12:40:14.009Z,68.82
2022-11-30T12:45:22.389Z,68.05
2022-11-30T12:50:18.673Z,73.10
2022-11-30T12:55:19.546Z,68.82
2022-11-30T13:00:20.342Z,72.90
2022-11-30T13:05:21.204Z,69.00
2022-11-30T13:10:53.038Z,70.70
2022-11-30T13:15:49.771Z,76.78
2022-11-30T13:21:06.423Z,72.93
2022-11-30T13:26:08.658Z,80.57
2022-11-30T13:31:05.575Z,79.32
2022-11-30T13:36:06.396Z,75.40
2022-11-30T13:41:04.013Z,82.47
2022-11-30T13:46:12.170Z,84.60
2022-11-30T13:51:08.549Z,83.68
2022-11-30T13:56:19.715Z,81.22
2022-11-30T14:06:48.529Z,87.80
2022-11-30T14:11:45.236Z,88.53
2022-11-30T14:16:42.039Z,89.07
2022-11-30T14:21:42.860Z,86.40
2022-11-30T14:26:49.555Z,91.20
2022-11-30T14:31:55.790Z,83.38
2022-11-30T14:36:54.159Z,84.93
2022-11-30T14:41:50.380Z,88.78
2022-11-30T14:46:46.652Z,86.10
2022-11-30T14:51:48.003Z,88.72
2022-11-30T14:56:47.126Z,87.90
2022-11-30T15:01:48.120Z,84.53
2022-11-30T15:06:44.453Z,89.75
2022-11-30T15:11:41.781Z,90.28
2022-11-30T15:16:38.637Z,93.03
2022-11-30T15:21:34.963Z,90.38
2022-11-30T15:26:33.824Z,95.10
2022-11-30T15:31:38.761Z,92.38
2022-11-30T15:36:35.639Z,95.15
2022-11-30T15:41:32.404Z,95.05
2022-11-30T15:46:33.700Z,88.25
2022-11-30T15:51:36.267Z,96.07
2022-11-30T15:56:32.490Z,95.97
2022-11-30T16:01:30.081Z,100.80
2022-11-30T16:06:44.996Z,102.35
2022-11-30T16:11:41.317Z,99.47
2022-11-30T16:16:37.614Z,103.10
2022-11-30T16:21:33.885Z,97.80
2022-11-30T16:31:46.583Z,98.18
2022-11-30T16:36:42.804Z,98.93
2022-11-30T16:41:39.122Z,99.00
2022-11-30T16:46:36.225Z,100.97
2022-11-30T16:51:34.599Z,98.03
2022-11-30T16:56:30.817Z,97.57
2022-11-30T17:01:34.811Z,99.55
2022-11-30T17:06:32.147Z,97.18
2022-11-30T17:11:29.861Z,97.03
2022-11-30T17:16:26.346Z,100.90
2022-11-30T17:21:33.304Z,102.47
2022-11-30T17:26:29.611Z,100.95
2022-11-30T17:31:25.911Z,104.82
2022-11-30T17:36:23.203Z,103.00
2022-11-30T17:41:20.202Z,102.15
2022-11-30T17:46:18.356Z,99.57
2022-11-30T17:51:14.767Z,107.85
2022-11-30T17:56:12.657Z,104.15
2022-11-30T18:01:22.450Z,105.63
2022-11-30T18:06:19.088Z,109.40
2022-11-30T18:11:17.000Z,112.03
2022-11-30T18:16:14.603Z,112.57
2022-11-30T18:21:12.354Z,108.57
2022-11-30T18:26:12.071Z,108.10
2022-11-30T18:31:08.600Z,103.70
2022-11-30T18:36:07.298Z,108.75
2022-11-30T18:41:04.315Z,111.95
2022-11-30T18:46:04.362Z,106.05
2022-11-30T18:51:09.539Z,108.00
2022-11-30T18:56:17.366Z,108.80
2022-11-30T19:01:18.052Z,106.43
2022-11-30T19:06:14.403Z,107.32
2022-11-30T19:11:11.730Z,107.18
2022-11-30T19:16:09.208Z,100.78
2022-11-30T19:21:12.592Z,101.65
2022-11-30T19:26:10.079Z,98.97
2022-11-30T19:31:08.234Z,100.28
2022-11-30T19:36:05.458Z,101.60
2022-11-30T19:41:05.981Z,100.68
2022-11-30T19:46:06.491Z,101.95
2022-11-30T19:51:06.897Z,101.65
2022-11-30T19:56:06.648Z,104.95
2022-11-30T20:01:04.866Z,105.57
2022-11-30T20:06:02.052Z,102.45
2022-11-30T20:10:58.313Z,101.60
2022-11-30T20:15:54.577Z,106.22
2022-11-30T20:20:50.826Z,108.28
2022-11-30T20:25:47.058Z,105.68
2022-11-30T20:30:43.689Z,107.60
2022-11-30T20:35:40.099Z,105.55
2022-11-30T20:40:39.701Z,111.57
2022-11-30T20:45:35.909Z,109.10
2022-11-30T20:50:32.117Z,106.68
2022-11-30T20:55:28.366Z,110.30
2022-11-30T21:00:24.594Z,107.95
2022-11-30T21:05:20.885Z,106.07
2022-11-30T21:10:17.100Z,110.28
2022-11-30T21:15:13.337Z,105.25
2022-11-30T21:20:10.005Z,105.18
2022-11-30T21:25:06.753Z,107.28
2022-11-30T21:30:03.630Z,114.60
2022-11-30T21:35:00.277Z,111.85
2022-11-30T21:39:56.507Z,112.65
2022-11-30T21:44:52.833Z,113.03
2022-11-30T21:49:49.094Z,114.35
2022-11-30T21:54:45.423Z,117.97
2022-11-30T21:59:41.637Z,120.75
2022-11-30T22:04:38.285Z,116.88
2022-11-30T22:09:34.572Z,118.28
2022-11-30T22:14:30.887Z,117.78
2022-11-30T22:19:27.121Z,123.95
2022-11-30T22:24:23.796Z,120.03
2022-11-30T22:29:22.035Z,122.20
2022-11-30T22:34:18.712Z,120.03
2022-11-30T22:39:16.642Z,123.88
2022-11-30T22:44:13.841Z,125.80
2022-11-30T22:49:15.796Z,118.85
2022-11-30T22:54:15.100Z,115.70
2022-11-30T22:59:11.947Z,120.68
2022-11-30T23:04:09.520Z,122.72
2022-11-30T23:09:06.668Z,123.93
2022-11-30T23:14:05.967Z,122.47
2022-11-30T23:19:02.203Z,126.43
2022-11-30T23:24:00.038Z,126.47
2022-11-30T23:28:58.617Z,123.18
2022-11-30T23:33:55.228Z,121.72
2022-11-30T23:38:55.774Z,119.25
2022-11-30T23:43:52.050Z,116.15
2022-11-30T23:48:48.279Z,118.28
2022-11-30T23:53:44.708Z,120.13
2022-11-30T23:58:40.950Z,120.47
